Time;durP1;ratioP1;P1;durP2;ratioP2;P2;SDS_P1;SDS_P2;PMS_P1;PMS_P2;Temp;Humidity;BMP_temperature;BMP_pressure;BME280_temperature;BME280_humidity;BME280_pressure;Samples;Min_cycle;Max_cycle;Signal;HPM_P1;HPM_P2
2023/10/13 00:00:36;;;;;;;33.80;22.00;;;15.10;99.90;;;;;;5052622;28;20155;-79
2023/10/13 00:03:03;;;;;;;30.23;21.35;;;15.10;99.90;;;;;;5054863;28;20497;-79
2023/10/13 00:05:32;;;;;;;40.63;22.20;;;15.10;99.90;;;;;;5072031;28;20049;-80
2023/10/13 00:08:00;;;;;;;31.85;22.42;;;15.20;99.90;;;;;;5072805;28;20037;-80
2023/10/13 00:10:28;;;;;;;35.83;22.63;;;15.20;99.90;;;;;;5072712;28;20052;-80
2023/10/13 00:12:53;;;;;;;30.58;22.08;;;15.20;99.90;;;;;;5072881;28;20119;-80
2023/10/13 00:15:27;;;;;;;31.02;21.70;;;15.20;99.90;;;;;;5053321;28;20120;-80
2023/10/13 00:17:55;;;;;;;29.35;20.98;;;15.30;99.90;;;;;;5054585;28;20025;-80
2023/10/13 00:20:37;;;;;;;29.10;20.92;;;15.30;99.90;;;;;;5056004;28;20046;-81
2023/10/13 00:23:03;;;;;;;28.42;20.88;;;15.30;99.90;;;;;;5051592;28;20393;-81
2023/10/13 00:25:43;;;;;;;29.08;19.80;;;15.40;99.90;;;;;;5073436;28;20044;-81
2023/10/13 00:28:09;;;;;;;28.83;20.23;;;15.40;99.90;;;;;;5072294;28;20059;-82
2023/10/13 00:30:35;;;;;;;28.10;20.17;;;15.50;99.90;;;;;;5070152;28;20120;-82
2023/10/13 00:33:00;;;;;;;27.98;19.80;;;15.50;99.90;;;;;;5072545;28;20119;-81
2023/10/13 00:35:36;;;;;;;27.10;19.52;;;15.50;99.90;;;;;;5056912;28;20032;-80
2023/10/13 00:38:12;;;;;;;29.38;19.83;;;15.60;99.90;;;;;;5055629;28;20068;-81
2023/10/13 00:40:43;;;;;;;26.58;18.75;;;15.60;99.90;;;;;;5072490;28;20154;-82
2023/10/13 00:45:57;;;;;;;25.38;19.33;;;15.70;99.90;;;;;;5064326;28;20044;-82
2023/10/13 00:48:34;;;;;;;26.52;18.75;;;15.70;99.90;;;;;;5071760;28;20043;-82
2023/10/13 00:51:07;;;;;;;24.95;17.42;;;15.70;99.90;;;;;;5071933;28;20115;-82
2023/10/13 00:53:34;;;;;;;26.08;18.63;;;15.80;99.90;;;;;;5055200;28;20040;-82
2023/10/13 00:56:07;;;;;;;24.65;18.90;;;15.90;99.90;;;;;;5072701;28;20515;-81
2023/10/13 00:58:34;;;;;;;22.92;17.98;;;15.90;99.90;;;;;;5055408;28;20119;-82
2023/10/13 01:01:17;;;;;;;24.00;17.25;;;16.00;99.90;;;;;;5055951;28;20038;-80
2023/10/13 01:03:48;;;;;;;21.52;16.50;;;16.00;99.90;;;;;;5054939;28;20047;-80
2023/10/13 01:06:17;;;;;;;22.10;16.02;;;16.20;99.90;;;;;;5054440;28;20447;-80
2023/10/13 01:08:51;;;;;;;23.05;17.17;;;16.20;99.90;;;;;;5067353;28;20056;-79
2023/10/13 01:11:23;;;;;;;23.88;16.77;;;16.20;99.90;;;;;;5052392;28;20045;-80
2023/10/13 01:13:51;;;;;;;27.95;17.27;;;16.30;99.90;;;;;;5046224;28;20045;-79
2023/10/13 01:16:26;;;;;;;24.35;17.23;;;16.20;99.90;;;;;;5069094;28;20033;-79
2023/10/13 01:18:53;;;;;;;24.67;16.80;;;16.30;99.90;;;;;;5035802;28;20036;-80
2023/10/13 01:21:27;;;;;;;23.42;16.55;;;16.30;99.90;;;;;;5067948;28;20427;-79
2023/10/13 01:23:53;;;;;;;26.20;15.88;;;16.40;99.90;;;;;;5055545;28;20429;-79
2023/10/13 01:26:24;;;;;;;21.45;15.95;;;16.30;99.90;;;;;;5053463;28;20122;-79
2023/10/13 01:28:51;;;;;;;20.67;13.88;;;16.40;99.90;;;;;;5052685;28;20048;-80
2023/10/13 01:31:30;;;;;;;28.52;15.85;;;16.40;99.90;;;;;;5040506;28;20040;-81
2023/10/13 01:33:58;;;;;;;21.90;13.68;;;16.40;99.90;;;;;;5053460;28;20110;-81
2023/10/13 01:36:26;;;;;;;22.40;14.48;;;16.50;99.90;;;;;;5071814;28;20037;-81
2023/10/13 01:38:52;;;;;;;25.25;15.82;;;16.50;99.90;;;;;;5071267;28;20041;-80
2023/10/13 01:41:19;;;;;;;20.48;14.32;;;16.50;99.90;;;;;;5050415;28;20028;-79
2023/10/13 01:43:44;;;;;;;21.00;14.40;;;16.50;99.90;;;;;;5065228;28;20036;-79
2023/10/13 01:46:13;;;;;;;24.60;15.02;;;16.50;99.90;;;;;;5051893;28;20392;-79
2023/10/13 01:48:41;;;;;;;20.58;13.82;;;16.50;99.90;;;;;;5051478;28;20048;-80
2023/10/13 01:51:09;;;;;;;23.75;15.15;;;16.50;99.90;;;;;;5054506;28;20079;-80
2023/10/13 01:53:39;;;;;;;21.00;15.18;;;16.50;99.90;;;;;;5070409;28;20044;-79
2023/10/13 01:56:09;;;;;;;23.35;14.85;;;16.50;99.90;;;;;;5056793;28;20041;-79
2023/10/13 01:58:42;;;;;;;22.17;14.23;;;16.50;99.90;;;;;;5069760;28;20378;-78
2023/10/13 02:01:09;;;;;;;23.35;15.57;;;16.50;99.90;;;;;;5068214;28;20400;-79
2023/10/13 02:03:41;;;;;;;24.33;15.15;;;16.50;99.90;;;;;;5052599;28;20041;-79
2023/10/13 02:06:10;;;;;;;20.33;15.23;;;16.60;99.90;;;;;;5052690;28;20048;-79
2023/10/13 02:08:39;;;;;;;20.08;15.02;;;16.60;99.90;;;;;;5069194;28;20493;-79
2023/10/13 02:11:07;;;;;;;22.30;16.33;;;16.60;99.90;;;;;;5083678;28;20093;-79
2023/10/13 02:13:32;;;;;;;21.75;15.43;;;16.60;99.90;;;;;;5054604;28;20127;-79
2023/10/13 02:16:03;;;;;;;21.80;16.05;;;16.60;99.90;;;;;;5067557;28;20132;-80
2023/10/13 02:18:41;;;;;;;22.17;15.97;;;16.60;99.90;;;;;;5070139;28;20044;-79
2023/10/13 02:21:12;;;;;;;23.75;16.05;;;16.60;99.90;;;;;;5075068;28;20352;-79
2023/10/13 02:23:44;;;;;;;25.15;15.63;;;16.60;99.90;;;;;;5070445;28;20626;-79
2023/10/13 02:26:21;;;;;;;29.93;15.97;;;16.70;99.90;;;;;;5069464;28;20059;-80
2023/10/13 02:28:52;;;;;;;25.98;16.77;;;16.70;99.90;;;;;;5070579;28;20516;-80
2023/10/13 02:31:19;;;;;;;21.92;17.00;;;16.70;99.90;;;;;;5065152;28;20036;-79
2023/10/13 02:33:45;;;;;;;22.70;15.70;;;16.70;99.90;;;;;;5043001;28;20044;-79
2023/10/13 02:36:19;;;;;;;24.48;17.33;;;16.80;99.90;;;;;;5052655;28;20044;-79
2023/10/13 02:38:47;;;;;;;22.15;17.02;;;16.80;99.90;;;;;;5069320;28;20087;-80
2023/10/13 02:41:27;;;;;;;23.08;16.35;;;16.80;99.90;;;;;;5081096;28;20044;-80
2023/10/13 02:43:54;;;;;;;22.30;15.98;;;16.70;99.90;;;;;;5071913;28;20045;-80
2023/10/13 02:46:21;;;;;;;21.75;16.92;;;16.80;99.90;;;;;;5087171;28;20055;-80
2023/10/13 02:48:52;;;;;;;24.48;17.95;;;16.80;99.90;;;;;;5071352;28;20059;-80
2023/10/13 02:51:22;;;;;;;24.02;17.25;;;16.70;99.90;;;;;;5043070;28;20048;-81
2023/10/13 02:53:48;;;;;;;23.95;17.77;;;16.70;99.90;;;;;;5051211;28;20049;-80
2023/10/13 02:56:20;;;;;;;23.55;16.52;;;16.70;99.90;;;;;;5074125;28;20052;-80
2023/10/13 02:58:52;;;;;;;22.88;15.93;;;16.80;99.90;;;;;;5074905;28;20094;-80
2023/10/13 03:01:18;;;;;;;22.88;13.90;;;16.90;99.90;;;;;;5073086;28;20506;-80
2023/10/13 03:03:47;;;;;;;24.75;17.27;;;16.80;99.90;;;;;;5070170;28;20032;-81
2023/10/13 03:06:14;;;;;;;19.98;16.05;;;16.80;99.90;;;;;;5056076;28;20059;-80
2023/10/13 03:08:40;;;;;;;24.45;15.45;;;16.80;99.90;;;;;;5066081;28;20040;-80
2023/10/13 03:11:05;;;;;;;18.80;14.70;;;16.80;99.90;;;;;;5073117;28;20032;-80
2023/10/13 03:13:34;;;;;;;20.27;14.82;;;16.80;99.90;;;;;;5054387;28;20041;-79
2023/10/13 03:16:00;;;;;;;20.67;15.85;;;16.80;99.90;;;;;;5057495;28;20048;-79
2023/10/13 03:18:26;;;;;;;17.95;13.23;;;16.80;99.90;;;;;;5055727;28;20037;-80
2023/10/13 03:20:56;;;;;;;17.75;14.15;;;16.80;99.90;;;;;;5057572;28;20040;-79
2023/10/13 03:23:24;;;;;;;18.30;14.10;;;16.80;99.90;;;;;;5053358;28;20033;-79
2023/10/13 03:25:50;;;;;;;20.20;14.38;;;16.80;99.90;;;;;;5057980;28;20491;-80
2023/10/13 03:28:18;;;;;;;20.75;13.57;;;16.70;99.90;;;;;;5071879;28;20044;-81
2023/10/13 03:30:43;;;;;;;18.52;12.50;;;16.80;99.90;;;;;;5057103;28;20061;-80
2023/10/13 03:33:14;;;;;;;16.67;13.60;;;16.80;99.90;;;;;;5072163;28;20040;-80
2023/10/13 03:35:52;;;;;;;17.45;13.68;;;16.70;99.90;;;;;;5056311;28;20140;-80
2023/10/13 03:38:18;;;;;;;19.20;14.10;;;16.70;99.90;;;;;;5072108;28;20481;-80
2023/10/13 03:40:48;;;;;;;18.80;14.30;;;16.70;99.90;;;;;;5073428;28;20085;-80
2023/10/13 03:43:21;;;;;;;18.58;13.48;;;16.70;99.90;;;;;;5068185;28;20413;-80
2023/10/13 03:45:48;;;;;;;17.20;12.55;;;16.70;99.90;;;;;;5067736;28;20040;-80
2023/10/13 03:53:36;;;;;;;17.65;12.40;;;16.80;99.90;;;;;;5068974;28;20494;-79
2023/10/13 03:56:14;;;;;;;19.50;13.52;;;16.80;99.90;;;;;;5067418;28;20053;-80
2023/10/13 03:58:45;;;;;;;16.70;12.90;;;16.80;99.90;;;;;;5053386;28;20128;-80
2023/10/13 04:01:15;;;;;;;16.95;11.65;;;16.80;99.90;;;;;;5063778;28;20036;-80
2023/10/13 04:17:45;;;;;;;14.75;11.10;;;16.80;99.90;;;;;;5013623;28;20045;-79
2023/10/13 04:36:14;;;;;;;14.05;10.70;;;16.80;99.90;;;;;;5053774;28;19928;-80
2023/10/13 04:41:42;;;;;;;17.55;12.05;;;16.80;99.90;;;;;;5070477;28;20113;-80
2023/10/13 04:49:35;;;;;;;17.10;11.63;;;16.70;99.90;;;;;;5065386;28;20040;-79
2023/10/13 04:57:46;;;;;;;16.52;12.07;;;16.80;99.90;;;;;;5070105;28;20390;-78
2023/10/13 05:49:50;;;;;;;10.05;6.57;;;16.60;99.90;;;;;;5069543;28;20040;-77
2023/10/13 05:52:19;;;;;;;7.85;4.95;;;16.70;99.90;;;;;;5070779;28;20492;-77
2023/10/13 06:30:20;;;;;;;5.78;3.63;;;16.50;99.90;;;;;;5060626;28;20044;-77
2023/10/13 06:32:46;;;;;;;6.15;3.20;;;16.60;99.90;;;;;;5051836;28;20046;-77
2023/10/13 06:35:24;;;;;;;5.85;3.33;;;16.60;99.90;;;;;;5053864;28;20500;-77
2023/10/13 06:37:50;;;;;;;5.95;3.22;;;16.70;99.90;;;;;;5071045;28;20404;-78
2023/10/13 06:40:25;;;;;;;10.75;3.95;;;16.70;99.90;;;;;;5052299;28;20119;-78
2023/10/13 06:43:12;;;;;;;6.15;3.08;;;16.70;99.90;;;;;;5070615;28;20511;-78
2023/10/13 06:46:00;;;;;;;6.20;3.50;;;16.60;99.90;;;;;;5051069;28;20036;-78
2023/10/13 06:48:26;;;;;;;8.05;3.50;;;16.70;99.90;;;;;;5067047;28;20048;-78
2023/10/13 06:50:55;;;;;;;7.20;3.00;;;16.70;99.90;;;;;;5059243;28;20033;-78
2023/10/13 06:53:21;;;;;;;5.18;2.80;;;16.70;99.90;;;;;;5051828;28;20127;-78
2023/10/13 06:55:49;;;;;;;3.75;2.15;;;16.70;99.90;;;;;;5069356;28;20101;-77
2023/10/13 06:58:17;;;;;;;5.95;2.80;;;16.80;99.90;;;;;;5069609;28;20084;-78
2023/10/13 07:00:52;;;;;;;6.07;2.85;;;16.90;99.90;;;;;;5068502;28;20116;-79
2023/10/13 07:03:25;;;;;;;4.55;2.40;;;16.90;99.90;;;;;;5088301;28;20049;-78
2023/10/13 07:05:51;;;;;;;7.22;2.63;;;16.80;99.90;;;;;;5062592;28;20028;-79
2023/10/13 07:08:20;;;;;;;6.55;2.75;;;16.80;99.90;;;;;;5069349;28;20388;-79
2023/10/13 07:11:02;;;;;;;6.15;2.33;;;16.80;99.90;;;;;;5068430;28;20482;-79
2023/10/13 07:13:39;;;;;;;5.63;2.85;;;16.80;99.90;;;;;;5058294;28;20123;-80
2023/10/13 07:16:12;;;;;;;5.50;2.13;;;16.80;99.90;;;;;;5064949;28;20032;-80
2023/10/13 07:18:42;;;;;;;8.15;2.78;;;16.90;99.90;;;;;;5067195;28;20556;-79
2023/10/13 07:21:11;;;;;;;6.22;2.67;;;16.80;99.90;;;;;;5062139;28;20044;-80
2023/10/13 07:23:37;;;;;;;8.35;2.95;;;16.90;99.90;;;;;;5051117;28;20044;-79
2023/10/13 07:26:06;;;;;;;6.90;2.83;;;16.90;99.90;;;;;;5051535;28;20091;-80
2023/10/13 07:28:35;;;;;;;8.93;2.97;;;16.90;99.90;;;;;;5051552;28;20039;-80
2023/10/13 07:33:31;;;;;;;6.82;2.53;;;16.80;99.90;;;;;;5068969;28;20123;-80
2023/10/13 07:39:10;;;;;;;8.95;3.03;;;16.80;99.90;;;;;;5067324;28;20166;-80
2023/10/13 07:41:36;;;;;;;8.70;2.97;;;16.80;99.90;;;;;;5065748;28;20086;-80
2023/10/13 07:44:04;;;;;;;7.15;3.08;;;16.70;99.90;;;;;;5072483;28;20041;-80
2023/10/13 07:46:32;;;;;;;8.02;3.35;;;16.80;99.90;;;;;;5073204;28;20072;-80
2023/10/13 07:49:20;;;;;;;7.43;3.10;;;16.80;99.90;;;;;;5053399;28;20533;-79
2023/10/13 07:51:49;;;;;;;11.27;3.30;;;16.90;99.90;;;;;;5064298;28;20195;-79
2023/10/13 07:54:21;;;;;;;8.27;3.20;;;16.90;99.90;;;;;;5085358;28;20463;-79
2023/10/13 07:56:47;;;;;;;9.30;3.17;;;16.90;99.90;;;;;;5070454;28;20053;-80
2023/10/13 07:59:14;;;;;;;7.25;3.25;;;17.00;99.90;;;;;;5056842;28;20059;-79
2023/10/13 08:01:43;;;;;;;11.23;3.70;;;16.90;99.90;;;;;;5055052;28;20048;-79
2023/10/13 08:04:12;;;;;;;10.85;3.60;;;17.00;99.90;;;;;;5037712;28;20040;-79
2023/10/13 08:06:40;;;;;;;9.20;3.30;;;17.10;99.90;;;;;;5053255;28;20044;-79
2023/10/13 08:11:54;;;;;;;11.50;3.53;;;17.00;99.90;;;;;;5060041;28;20040;-79
2023/10/13 08:14:22;;;;;;;10.95;3.83;;;17.10;99.90;;;;;;5055085;28;20040;-79
2023/10/13 08:19:27;;;;;;;13.63;3.83;;;17.00;99.90;;;;;;5073434;28;20076;-79
2023/10/13 08:53:31;;;;;;;12.85;4.40;;;17.30;99.90;;;;;;5062987;28;20520;-79
2023/10/13 09:01:48;;;;;;;13.13;4.63;;;17.30;99.90;;;;;;5057619;28;20048;-80
2023/10/13 09:07:07;;;;;;;14.25;5.07;;;17.40;99.90;;;;;;5068637;28;20396;-80
2023/10/13 09:14:58;;;;;;;13.70;6.10;;;17.50;99.90;;;;;;5073238;28;20045;-80
2023/10/13 09:17:38;;;;;;;12.65;4.40;;;17.50;99.90;;;;;;5052260;28;20068;-80
2023/10/13 09:25:35;;;;;;;11.80;4.70;;;17.70;99.90;;;;;;5061930;28;20041;-80
2023/10/13 09:28:15;;;;;;;12.88;5.57;;;17.70;99.90;;;;;;5052571;28;20066;-80
2023/10/13 09:30:56;;;;;;;12.50;4.90;;;17.80;99.90;;;;;;5050536;28;20403;-80
2023/10/13 09:33:33;;;;;;;10.30;5.15;;;17.80;99.90;;;;;;5067731;28;20487;-80
2023/10/13 09:35:59;;;;;;;11.52;5.22;;;17.90;99.90;;;;;;5068565;28;20041;-80
2023/10/13 09:38:28;;;;;;;10.07;4.93;;;17.90;99.90;;;;;;5063399;28;20485;-80
2023/10/13 09:40:57;;;;;;;10.77;4.95;;;18.00;99.90;;;;;;5069602;28;20115;-80
2023/10/13 09:43:27;;;;;;;9.43;4.75;;;18.00;99.90;;;;;;5068534;28;20114;-80
2023/10/13 09:46:15;;;;;;;12.63;5.18;;;18.00;99.90;;;;;;5055360;28;20139;-80
2023/10/13 09:48:47;;;;;;;13.00;5.10;;;18.10;99.90;;;;;;5053906;28;20047;-81
2023/10/13 09:51:19;;;;;;;9.60;4.80;;;18.10;99.90;;;;;;5054507;28;20040;-81
2023/10/13 09:53:53;;;;;;;11.02;5.15;;;18.20;99.90;;;;;;5070851;28;20080;-81
2023/10/13 09:56:27;;;;;;;10.25;4.15;;;18.30;99.90;;;;;;5034681;28;20063;-80
2023/10/13 09:59:08;;;;;;;13.13;4.97;;;18.30;99.90;;;;;;5066403;28;20033;-80
2023/10/13 10:01:38;;;;;;;15.65;4.78;;;18.30;99.90;;;;;;5071282;28;20048;-80
2023/10/13 10:04:09;;;;;;;12.20;4.47;;;18.40;99.90;;;;;;5070924;28;20044;-80
2023/10/13 10:06:39;;;;;;;10.05;4.28;;;18.40;99.90;;;;;;5071124;28;20036;-80
2023/10/13 10:09:12;;;;;;;11.35;4.43;;;18.50;99.90;;;;;;5070801;28;20040;-80
2023/10/13 10:12:18;;;;;;;12.50;4.47;;;18.60;99.90;;;;;;5053568;28;20063;-80
2023/10/13 10:15:01;;;;;;;11.55;4.00;;;18.60;99.90;;;;;;5066833;28;20040;-80
2023/10/13 10:17:29;;;;;;;13.57;4.57;;;18.60;99.90;;;;;;5061034;28;20044;-80
2023/10/13 10:19:56;;;;;;;12.00;4.30;;;18.70;99.90;;;;;;5055488;28;20381;-80
2023/10/13 10:22:33;;;;;;;13.45;4.90;;;18.70;99.90;;;;;;5048253;28;21656;-80
2023/10/13 10:27:58;;;;;;;10.98;4.47;;;18.70;99.90;;;;;;5054897;28;20040;-80
2023/10/13 10:30:28;;;;;;;12.07;4.28;;;18.80;99.90;;;;;;5054187;28;20124;-80
2023/10/13 10:32:59;;;;;;;11.18;3.63;;;18.90;99.90;;;;;;5071593;28;20051;-81
2023/10/13 10:35:32;;;;;;;9.18;4.07;;;18.90;99.90;;;;;;5071758;28;20044;-81
2023/10/13 10:38:54;;;;;;;10.88;3.90;;;19.00;99.90;;;;;;5067094;28;20392;-81
2023/10/13 10:41:05;;;;;;;10.48;4.25;;;19.00;99.90;;;;;;5048587;28;20041;-80
2023/10/13 10:43:43;;;;;;;14.23;4.90;;;18.90;99.90;;;;;;5066230;28;20059;-80
2023/10/13 10:46:18;;;;;;;9.77;2.90;;;18.90;99.90;;;;;;5063304;28;20033;-79
2023/10/13 10:48:44;;;;;;;15.13;4.03;;;19.10;99.90;;;;;;5054152;28;20123;-80
2023/10/13 10:51:23;;;;;;;9.98;3.80;;;19.10;99.90;;;;;;5054552;28;20044;-80
2023/10/13 10:53:50;;;;;;;13.73;3.75;;;19.20;99.90;;;;;;5070242;28;20127;-81
2023/10/13 10:56:23;;;;;;;14.88;4.28;;;19.20;99.90;;;;;;5057617;28;20060;-81
2023/10/13 10:58:54;;;;;;;14.38;4.72;;;19.20;99.90;;;;;;5053164;28;20055;-80
2023/10/13 11:01:22;;;;;;;11.93;4.20;;;19.30;99.90;;;;;;5054872;28;20040;-81
2023/10/13 11:04:14;;;;;;;13.07;4.70;;;19.30;99.90;;;;;;5054093;28;20090;-80
2023/10/13 11:06:49;;;;;;;13.68;4.78;;;19.40;99.90;;;;;;5049906;28;20040;-80
2023/10/13 11:11:57;;;;;;;14.70;4.80;;;19.60;99.90;;;;;;5070366;28;20041;-80
2023/10/13 11:14:28;;;;;;;13.63;4.97;;;19.60;99.90;;;;;;5041054;28;20040;-80
2023/10/13 11:16:59;;;;;;;14.02;4.25;;;19.70;99.90;;;;;;5057555;28;20507;-80
2023/10/13 11:19:39;;;;;;;13.40;4.05;;;19.80;99.90;;;;;;5071394;28;20039;-80
2023/10/13 11:22:35;;;;;;;14.77;4.55;;;19.80;99.90;;;;;;5050653;28;20037;-80
2023/10/13 11:25:12;;;;;;;11.27;3.95;;;19.80;99.90;;;;;;5073764;28;20071;-80
2023/10/13 11:30:24;;;;;;;15.93;4.78;;;19.90;99.90;;;;;;5071160;28;20392;-80
2023/10/13 11:33:07;;;;;;;14.40;4.78;;;19.80;99.90;;;;;;5073119;28;20036;-80
2023/10/13 11:35:55;;;;;;;11.55;5.25;;;19.70;99.90;;;;;;5063022;28;20049;-79
2023/10/13 11:38:42;;;;;;;12.32;4.35;;;19.80;99.90;;;;;;5047800;28;20051;-80
2023/10/13 11:48:39;;;;;;;14.27;4.80;;;19.70;99.90;;;;;;5054039;28;20048;-80
2023/10/13 11:51:08;;;;;;;8.48;3.67;;;19.70;99.90;;;;;;5060698;28;20497;-80
2023/10/13 11:53:37;;;;;;;13.60;4.00;;;19.80;99.90;;;;;;5038374;28;20152;-79
2023/10/13 11:56:11;;;;;;;14.73;5.22;;;19.80;99.90;;;;;;5066632;28;20472;-79
2023/10/13 11:58:37;;;;;;;12.00;4.47;;;19.70;99.90;;;;;;5053701;28;20049;-80
2023/10/13 12:06:32;;;;;;;15.77;5.22;;;19.70;99.90;;;;;;5089914;28;20041;-79
2023/10/13 12:09:11;;;;;;;16.52;4.60;;;19.70;99.90;;;;;;5057278;28;20131;-79
2023/10/13 12:11:45;;;;;;;15.63;5.10;;;19.70;99.90;;;;;;5070723;28;20121;-80
2023/10/13 12:14:19;;;;;;;14.75;4.95;;;19.70;99.90;;;;;;5057101;28;20037;-79
2023/10/13 12:16:55;;;;;;;14.40;5.18;;;19.70;99.90;;;;;;5056626;28;20123;-80
2023/10/13 12:19:24;;;;;;;13.90;4.95;;;19.70;99.90;;;;;;5056814;28;20058;-78
2023/10/13 12:21:54;;;;;;;15.57;5.15;;;19.70;99.90;;;;;;5073755;28;20431;-78
2023/10/13 12:29:51;;;;;;;12.73;5.05;;;19.40;99.90;;;;;;5067447;28;20048;-78
2023/10/13 12:32:30;;;;;;;11.52;5.10;;;19.40;99.90;;;;;;5054455;28;20048;-78
2023/10/13 12:53:55;;;;;;;16.17;6.55;;;19.40;99.90;;;;;;5069053;28;20036;-75
2023/10/13 12:56:28;;;;;;;15.52;5.80;;;19.40;99.90;;;;;;5081176;28;20064;-79
2023/10/13 12:58:54;;;;;;;12.65;5.15;;;19.40;99.90;;;;;;5069691;28;20493;-81
2023/10/13 13:01:32;;;;;;;17.65;5.85;;;19.50;99.90;;;;;;5069903;28;20044;-80
2023/10/13 13:03:58;;;;;;;15.48;6.40;;;19.50;99.90;;;;;;5067752;28;20428;-79
2023/10/13 13:06:26;;;;;;;13.50;5.85;;;19.50;99.90;;;;;;5072290;28;20047;-80
2023/10/13 13:08:55;;;;;;;18.40;5.43;;;19.50;99.90;;;;;;5066023;28;20528;-79
2023/10/13 13:11:20;;;;;;;12.82;5.22;;;19.50;99.90;;;;;;5072416;28;20032;-79
2023/10/13 13:13:47;;;;;;;12.90;5.20;;;19.60;99.90;;;;;;5073444;28;20048;-79
2023/10/13 13:16:13;;;;;;;15.30;5.75;;;19.50;99.90;;;;;;5055315;28;20047;-79
2023/10/13 13:18:39;;;;;;;16.00;5.80;;;19.50;99.90;;;;;;5046756;28;20573;-79
2023/10/13 13:21:06;;;;;;;18.25;6.30;;;19.50;99.90;;;;;;5064460;28;20115;-78
2023/10/13 13:23:34;;;;;;;16.52;6.75;;;19.50;99.90;;;;;;5055555;28;20036;-79
2023/10/13 13:26:00;;;;;;;12.55;4.82;;;19.40;99.90;;;;;;5055810;28;20431;-79
2023/10/13 13:28:28;;;;;;;18.80;6.60;;;19.40;99.90;;;;;;5054531;28;20127;-79
2023/10/13 13:30:54;;;;;;;14.10;5.60;;;19.40;99.90;;;;;;5054044;28;20046;-79
2023/10/13 13:33:25;;;;;;;14.48;5.47;;;19.30;99.90;;;;;;5055847;28;20032;-80
2023/10/13 13:35:53;;;;;;;17.35;6.45;;;19.10;99.90;;;;;;5070398;28;20127;-80
2023/10/13 13:38:22;;;;;;;17.42;5.85;;;19.20;99.90;;;;;;5057037;28;20508;-80
2023/10/13 13:40:53;;;;;;;13.80;6.20;;;19.20;99.90;;;;;;5054246;28;20032;-79
2023/10/13 13:44:28;;;;;;;16.00;5.60;;;19.30;99.90;;;;;;5051469;28;20036;-82
2023/10/13 13:46:18;;;;;;;14.70;6.82;;;19.30;99.90;;;;;;5036917;28;20412;-82
2023/10/13 13:48:48;;;;;;;13.52;5.97;;;19.30;99.90;;;;;;5071210;28;20060;-82
2023/10/13 13:51:14;;;;;;;16.77;6.28;;;19.20;99.90;;;;;;5070312;28;20443;-82
2023/10/13 13:53:50;;;;;;;15.10;6.63;;;19.10;99.90;;;;;;5056662;28;20086;-82
2023/10/13 13:56:16;;;;;;;16.95;5.50;;;19.10;99.90;;;;;;5051160;28;20061;-76
2023/10/13 13:58:55;;;;;;;15.85;5.38;;;19.10;99.90;;;;;;5069972;28;20036;-85
2023/10/13 14:01:21;;;;;;;14.45;6.35;;;19.20;99.90;;;;;;5070050;28;20119;-87
2023/10/13 14:03:51;;;;;;;18.35;6.47;;;19.20;99.90;;;;;;5071476;28;20075;-76
2023/10/13 14:06:23;;;;;;;16.80;6.32;;;19.20;99.90;;;;;;5070522;28;20032;-79
2023/10/13 14:08:51;;;;;;;14.20;5.53;;;19.20;99.90;;;;;;5070783;28;20123;-76
2023/10/13 14:11:56;;;;;;;14.68;6.07;;;19.20;99.90;;;;;;5053880;28;20043;-77
2023/10/13 14:14:12;;;;;;;14.25;6.18;;;19.30;99.90;;;;;;5081174;28;20040;-78
2023/10/13 14:16:46;;;;;;;15.02;5.72;;;19.20;99.90;;;;;;5071153;28;20036;-84
2023/10/13 14:19:19;;;;;;;14.27;5.68;;;19.10;99.90;;;;;;5068265;28;20045;-81
2023/10/13 14:21:44;;;;;;;15.60;6.82;;;19.10;99.90;;;;;;5069663;28;20068;-75
2023/10/13 14:24:14;;;;;;;11.98;5.38;;;19.00;99.90;;;;;;5069127;28;20063;-76
2023/10/13 14:26:42;;;;;;;18.27;5.93;;;19.10;99.90;;;;;;5040453;28;20389;-83
2023/10/13 14:29:09;;;;;;;12.23;5.38;;;19.10;99.90;;;;;;5052402;28;20043;-83
2023/10/13 14:31:39;;;;;;;15.15;6.03;;;19.10;99.90;;;;;;5046889;28;20052;-83
2023/10/13 14:34:05;;;;;;;14.38;5.82;;;19.00;99.90;;;;;;5052517;28;20044;-82
2023/10/13 14:36:34;;;;;;;11.57;5.15;;;19.10;99.90;;;;;;5067792;28;20040;-79
2023/10/13 14:39:01;;;;;;;14.27;6.25;;;19.10;99.90;;;;;;5070828;28;20044;-76
2023/10/13 14:41:26;;;;;;;16.27;5.25;;;19.00;99.90;;;;;;5071178;28;20119;-82
2023/10/13 14:43:52;;;;;;;16.05;5.88;;;19.10;99.90;;;;;;5052368;28;20119;-81
2023/10/13 14:46:24;;;;;;;13.75;5.40;;;19.10;99.90;;;;;;5052615;28;20487;-82
2023/10/13 14:48:54;;;;;;;20.45;6.10;;;19.10;99.90;;;;;;5055940;28;20033;-82
2023/10/13 14:51:19;;;;;;;14.77;6.72;;;19.10;99.90;;;;;;5058429;28;20032;-82
2023/10/13 14:53:46;;;;;;;14.48;6.15;;;19.10;99.90;;;;;;5073186;28;20382;-82
2023/10/13 14:56:15;;;;;;;14.77;6.15;;;19.10;99.90;;;;;;5073503;28;20116;-73
2023/10/13 14:58:42;;;;;;;14.05;4.90;;;19.10;99.90;;;;;;5057498;28;20069;-73
2023/10/13 15:01:19;;;;;;;14.43;4.65;;;19.10;99.90;;;;;;5055159;28;20036;-72
2023/10/13 15:03:50;;;;;;;16.35;5.70;;;19.10;99.90;;;;;;5049312;28;20081;-78
2023/10/13 15:06:28;;;;;;;12.57;5.65;;;19.10;99.90;;;;;;5056565;28;20064;-78
2023/10/13 15:08:58;;;;;;;13.60;6.05;;;19.10;99.90;;;;;;5092456;28;20472;-78
2023/10/13 15:11:38;;;;;;;19.45;7.25;;;19.10;99.90;;;;;;5086965;28;20124;-77
2023/10/13 15:14:07;;;;;;;16.80;6.72;;;19.10;99.90;;;;;;5081630;28;20049;-77
2023/10/13 15:16:36;;;;;;;16.17;5.75;;;19.10;99.90;;;;;;5061182;28;20073;-77
2023/10/13 15:19:04;;;;;;;15.68;6.68;;;19.00;99.90;;;;;;5062670;28;20395;-78
2023/10/13 15:21:34;;;;;;;14.60;6.38;;;19.00;99.90;;;;;;5069110;28;20036;-79
2023/10/13 15:24:03;;;;;;;16.42;6.82;;;18.80;99.90;;;;;;5061433;28;20500;-78
2023/10/13 15:26:37;;;;;;;18.33;7.30;;;18.80;99.90;;;;;;5068557;28;20404;-79
2023/10/13 15:29:09;;;;;;;16.73;7.15;;;18.70;99.90;;;;;;5047369;28;20101;-79
2023/10/13 15:34:12;;;;;;;15.43;7.25;;;18.70;99.90;;;;;;5072809;28;20039;-79
2023/10/13 15:36:40;;;;;;;17.15;8.10;;;18.60;99.90;;;;;;5068226;28;20029;-78
2023/10/13 15:39:08;;;;;;;19.42;6.90;;;18.40;99.90;;;;;;5069986;28;20045;-78
2023/10/13 15:41:33;;;;;;;18.35;8.18;;;18.40;99.90;;;;;;5060817;28;20401;-79
2023/10/13 15:43:59;;;;;;;16.67;6.70;;;18.40;99.90;;;;;;5073655;28;20041;-79
2023/10/13 15:46:25;;;;;;;17.90;7.95;;;18.40;99.90;;;;;;5055811;28;20024;-79
2023/10/13 15:48:52;;;;;;;18.60;6.95;;;18.40;99.90;;;;;;5056261;28;20036;-79
2023/10/13 15:51:18;;;;;;;13.70;7.28;;;18.40;99.90;;;;;;5061402;28;20034;-79
2023/10/13 15:53:47;;;;;;;16.77;6.72;;;18.30;99.90;;;;;;5073449;28;20071;-79
2023/10/13 15:56:14;;;;;;;17.27;7.90;;;18.40;99.90;;;;;;5071990;28;20123;-79
2023/10/13 15:58:50;;;;;;;19.92;8.30;;;18.40;99.90;;;;;;5050198;28;20503;-79
2023/10/13 16:01:16;;;;;;;18.67;7.57;;;18.40;99.90;;;;;;5058032;28;20492;-79
2023/10/13 16:03:49;;;;;;;15.18;6.20;;;18.30;99.90;;;;;;5072833;28;20056;-79
2023/10/13 16:06:18;;;;;;;11.50;4.40;;;18.40;99.90;;;;;;5067245;28;20037;-79
2023/10/13 16:08:44;;;;;;;17.08;7.15;;;18.40;99.90;;;;;;5083271;28;20464;-79
2023/10/13 16:11:17;;;;;;;14.05;5.57;;;18.30;99.90;;;;;;5047530;28;20068;-80
2023/10/13 16:13:51;;;;;;;15.85;6.20;;;18.30;99.90;;;;;;5056196;28;20036;-80
2023/10/13 16:16:22;;;;;;;13.18;5.78;;;18.40;99.90;;;;;;5085448;28;20045;-79
2023/10/13 16:18:49;;;;;;;12.13;5.88;;;18.30;99.90;;;;;;5072336;28;20115;-80
2023/10/13 16:21:15;;;;;;;16.48;6.93;;;18.40;99.90;;;;;;5071670;28;20082;-80
2023/10/13 16:23:47;;;;;;;13.02;6.97;;;18.30;99.90;;;;;;5063565;28;20038;-79
2023/10/13 16:26:21;;;;;;;18.83;5.93;;;18.30;99.90;;;;;;5078457;28;20044;-80
2023/10/13 16:28:53;;;;;;;16.13;5.93;;;18.30;99.90;;;;;;5066065;28;20036;-80
2023/10/13 16:31:22;;;;;;;11.00;4.15;;;18.20;99.90;;;;;;5077261;28;20048;-80
2023/10/13 16:33:48;;;;;;;10.77;4.72;;;18.30;99.90;;;;;;5036146;28;20037;-79
2023/10/13 16:36:14;;;;;;;14.60;4.78;;;18.30;99.90;;;;;;5066182;28;20047;-79
2023/10/13 16:38:39;;;;;;;11.48;4.22;;;18.30;99.90;;;;;;5055489;28;20392;-79
2023/10/13 16:41:08;;;;;;;12.52;5.30;;;18.30;99.90;;;;;;5048985;28;20048;-79
2023/10/13 16:43:35;;;;;;;10.18;4.00;;;18.20;99.90;;;;;;5071400;28;20115;-79
2023/10/13 16:46:19;;;;;;;11.18;4.25;;;18.20;99.90;;;;;;5069770;28;20094;-79
2023/10/13 16:48:48;;;;;;;9.10;3.42;;;18.20;99.90;;;;;;5071548;28;20059;-79
2023/10/13 16:51:15;;;;;;;10.27;3.60;;;18.30;99.90;;;;;;5072041;28;20122;-79
2023/10/13 16:53:51;;;;;;;12.50;4.07;;;18.20;99.90;;;;;;5069158;28;20481;-79
2023/10/13 16:56:17;;;;;;;9.85;3.20;;;18.30;99.90;;;;;;5041568;28;20057;-79
2023/10/13 16:58:46;;;;;;;9.68;3.50;;;18.30;99.90;;;;;;5061349;28;20486;-79
2023/10/13 17:01:12;;;;;;;10.05;3.35;;;18.30;99.90;;;;;;5055706;28;20040;-79